createdAt,value
2018-05-03T00:00:34.217Z,5.00
2018-05-03T00:03:01.763Z,5.70
2018-05-03T00:05:29.339Z,4.90
2018-05-03T00:07:56.891Z,4.90
2018-05-03T00:10:24.461Z,4.80
2018-05-03T00:12:52.005Z,4.70
2018-05-03T00:15:19.571Z,4.33
2018-05-03T00:17:47.109Z,4.97
2018-05-03T00:20:14.676Z,4.80
2018-05-03T00:22:42.247Z,4.80
2018-05-03T00:25:09.807Z,4.97
2018-05-03T00:27:37.357Z,4.87
2018-05-03T00:30:04.908Z,5.60
2018-05-03T00:32:32.440Z,4.80
2018-05-03T00:35:00.750Z,5.20
2018-05-03T00:37:28.309Z,4.90
2018-05-03T00:39:55.888Z,4.93
2018-05-03T00:42:23.457Z,5.37
2018-05-03T00:44:51.052Z,5.07
2018-05-03T00:47:19.347Z,5.50
2018-05-03T00:49:47.702Z,5.90
2018-05-03T00:54:49.278Z,5.90
2018-05-03T00:57:17.590Z,5.93
2018-05-03T00:59:45.186Z,5.10
2018-05-03T01:02:12.731Z,5.87
2018-05-03T01:04:40.293Z,5.40
2018-05-03T01:07:07.862Z,5.47
2018-05-03T01:09:35.421Z,5.70
2018-05-03T01:12:03.005Z,5.70
2018-05-03T01:14:30.566Z,6.07
2018-05-03T01:16:58.127Z,4.90
2018-05-03T01:19:25.700Z,5.90
2018-05-03T01:21:54.044Z,6.13
2018-05-03T01:24:21.614Z,5.40
2018-05-03T01:26:49.156Z,6.43
2018-05-03T01:29:16.725Z,6.57
2018-05-03T01:31:44.335Z,6.13
2018-05-03T01:34:11.900Z,5.73
2018-05-03T01:36:39.460Z,6.67
2018-05-03T01:39:07.025Z,6.70
2018-05-03T01:41:34.596Z,7.23
2018-05-03T01:44:02.140Z,6.73
2018-05-03T01:46:29.720Z,6.57
2018-05-03T01:48:57.271Z,6.80
2018-05-03T01:51:24.839Z,9.00
2018-05-03T01:53:52.380Z,7.47
2018-05-03T01:56:19.964Z,6.83
2018-05-03T01:58:47.501Z,7.17
2018-05-03T02:01:15.080Z,6.60
2018-05-03T02:03:42.623Z,6.20
2018-05-03T02:06:10.203Z,6.93
2018-05-03T02:08:37.747Z,6.73
2018-05-03T02:11:05.318Z,6.87
2018-05-03T02:13:32.857Z,7.63
2018-05-03T02:16:00.424Z,6.57
2018-05-03T02:18:28.031Z,6.60
2018-05-03T02:20:56.507Z,6.50
2018-05-03T02:23:24.894Z,6.00
2018-05-03T02:25:53.335Z,6.70
2018-05-03T02:28:20.900Z,6.20
2018-05-03T02:30:48.467Z,6.40
2018-05-03T02:33:16.054Z,7.33
2018-05-03T02:35:43.595Z,6.70
2018-05-03T02:38:11.168Z,6.60
2018-05-03T02:40:38.707Z,7.17
2018-05-03T02:43:06.277Z,6.27
2018-05-03T02:45:33.822Z,6.60
2018-05-03T02:48:01.397Z,6.47
2018-05-03T02:50:28.962Z,6.67
2018-05-03T02:52:56.527Z,8.17
2018-05-03T02:55:24.075Z,9.00
2018-05-03T02:58:09.246Z,8.80
2018-05-03T03:00:54.461Z,7.30
2018-05-03T03:03:40.381Z,7.60
2018-05-03T03:06:19.751Z,7.70
2018-05-03T03:12:40.454Z,7.13
2018-05-03T03:15:25.788Z,7.30
2018-05-03T03:18:11.119Z,7.50
2018-05-03T03:20:57.019Z,7.53
2018-05-03T03:23:42.148Z,7.40
2018-05-03T03:29:44.042Z,7.40
2018-05-03T03:32:23.451Z,8.33
2018-05-03T03:35:02.612Z,7.10
2018-05-03T03:37:42.040Z,6.50
2018-05-03T03:40:25.395Z,7.07
2018-05-03T03:46:07.690Z,7.80
2018-05-03T03:48:35.267Z,8.03
2018-05-03T03:51:03.827Z,6.80
2018-05-03T03:53:31.401Z,6.57
2018-05-03T03:55:58.955Z,7.10
2018-05-03T03:58:26.520Z,7.40
2018-05-03T04:00:54.056Z,7.83
2018-05-03T04:03:22.390Z,7.47
2018-05-03T04:05:49.937Z,7.73
2018-05-03T04:08:17.502Z,7.10
2018-05-03T04:10:45.052Z,7.70
2018-05-03T04:13:12.614Z,7.20
2018-05-03T04:15:40.178Z,7.10
2018-05-03T04:18:19.611Z,8.27
2018-05-03T04:21:08.634Z,7.50
2018-05-03T04:23:48.101Z,7.10
2018-05-03T04:26:15.654Z,8.23
2018-05-03T04:28:43.265Z,8.43
2018-05-03T04:31:10.806Z,7.93
2018-05-03T04:33:38.366Z,7.90
2018-05-03T04:36:05.918Z,8.23
2018-05-03T04:38:33.488Z,8.20
2018-05-03T04:41:01.032Z,7.50
2018-05-03T04:43:28.610Z,8.00
2018-05-03T04:45:56.163Z,8.27
2018-05-03T04:48:23.716Z,7.50
2018-05-03T04:50:51.301Z,7.77
2018-05-03T04:53:18.854Z,8.10
2018-05-03T04:55:46.432Z,12.37
2018-05-03T04:58:14.831Z,31.33
2018-05-03T05:00:42.519Z,8.73
2018-05-03T05:03:10.155Z,8.60
2018-05-03T05:05:37.803Z,8.80
2018-05-03T05:08:05.364Z,8.17
2018-05-03T05:10:33.772Z,7.60
2018-05-03T05:13:01.267Z,8.03
2018-05-03T05:15:28.846Z,8.40
2018-05-03T05:17:56.445Z,11.60
2018-05-03T05:20:24.752Z,9.47
2018-05-03T05:22:52.290Z,9.00
2018-05-03T05:25:19.858Z,10.30
2018-05-03T05:27:47.493Z,8.20
2018-05-03T05:30:15.176Z,9.67
2018-05-03T05:32:42.786Z,9.00
2018-05-03T05:35:11.201Z,8.80
2018-05-03T05:37:38.758Z,9.07
2018-05-03T05:40:06.365Z,8.87
2018-05-03T05:42:33.916Z,9.50
2018-05-03T05:45:01.489Z,8.20
2018-05-03T05:47:29.071Z,8.40
2018-05-03T05:49:57.398Z,8.33
2018-05-03T05:52:24.954Z,8.63
2018-05-03T05:54:52.625Z,15.87
2018-05-03T05:57:20.187Z,8.60
2018-05-03T05:59:47.744Z,8.30
2018-05-03T06:02:15.290Z,8.30
2018-05-03T06:04:42.853Z,7.70
2018-05-03T06:07:10.399Z,8.20
2018-05-03T06:09:37.976Z,7.13
2018-05-03T06:12:05.506Z,7.70
2018-05-03T06:14:33.089Z,7.30
2018-05-03T06:17:00.635Z,8.00
2018-05-03T06:19:28.197Z,6.43
2018-05-03T06:21:55.758Z,8.03
2018-05-03T06:24:23.294Z,8.30
2018-05-03T06:26:51.626Z,10.23
2018-05-03T06:29:19.178Z,9.97
2018-05-03T06:31:46.754Z,10.30
2018-05-03T06:34:14.312Z,10.23
2018-05-03T06:36:41.866Z,9.20
2018-05-03T06:39:09.407Z,9.43
2018-05-03T06:41:36.970Z,9.63
2018-05-03T06:44:04.518Z,9.27
2018-05-03T06:46:32.107Z,9.30
2018-05-03T06:48:59.663Z,9.93
2018-05-03T06:51:27.241Z,9.80
2018-05-03T06:53:54.811Z,9.70
2018-05-03T06:56:22.381Z,9.80
2018-05-03T06:58:50.688Z,10.40
2018-05-03T07:01:18.288Z,10.10
2018-05-03T07:03:45.856Z,10.03
2018-05-03T07:06:13.423Z,10.07
2018-05-03T07:08:40.976Z,10.40
2018-05-03T07:11:08.542Z,9.53
2018-05-03T07:13:36.081Z,9.60
2018-05-03T07:16:03.678Z,9.70
2018-05-03T07:18:31.995Z,9.97
2018-05-03T07:20:59.564Z,9.23
2018-05-03T07:23:27.114Z,10.30
2018-05-03T07:25:54.692Z,10.00
2018-05-03T07:28:22.235Z,9.30
2018-05-03T07:30:49.799Z,9.30
2018-05-03T07:33:17.355Z,9.90
2018-05-03T07:35:44.919Z,8.90
2018-05-03T07:38:12.471Z,9.50
2018-05-03T07:40:40.060Z,9.80
2018-05-03T07:43:07.595Z,9.07
2018-05-03T07:45:35.167Z,9.27
2018-05-03T07:48:02.769Z,9.40
2018-05-03T07:50:30.417Z,9.33
2018-05-03T07:52:58.800Z,8.17
2018-05-03T07:55:27.229Z,9.97
2018-05-03T07:57:54.777Z,9.27
2018-05-03T08:00:22.320Z,8.50
2018-05-03T08:02:50.658Z,8.63
2018-05-03T08:05:18.220Z,8.90
2018-05-03T08:07:45.794Z,7.80
2018-05-03T08:10:13.340Z,7.77
2018-05-03T08:12:40.981Z,8.17
2018-05-03T08:15:08.549Z,8.87
2018-05-03T08:17:36.118Z,9.67
2018-05-03T08:20:03.678Z,9.53
2018-05-03T08:22:31.239Z,7.60
2018-05-03T08:24:58.808Z,7.90
2018-05-03T08:27:26.392Z,9.30
2018-05-03T08:29:54.715Z,9.53
2018-05-03T08:32:22.284Z,8.43
2018-05-03T08:34:49.818Z,7.33
2018-05-03T08:37:17.379Z,8.30
2018-05-03T08:39:44.922Z,8.37
2018-05-03T08:42:12.486Z,8.77
2018-05-03T08:44:40.048Z,9.00
2018-05-03T08:47:07.619Z,9.10
2018-05-03T08:49:35.162Z,8.77
2018-05-03T08:52:02.733Z,8.20
2018-05-03T08:54:30.274Z,9.17
2018-05-03T08:56:58.601Z,9.20
2018-05-03T08:59:26.141Z,8.00
2018-05-03T09:01:53.779Z,7.50
2018-05-03T09:04:21.279Z,9.00
2018-05-03T09:06:48.843Z,8.70
2018-05-03T09:09:16.398Z,9.90
2018-05-03T09:11:43.968Z,9.67
2018-05-03T09:14:11.506Z,8.43
2018-05-03T09:16:39.085Z,9.00
2018-05-03T09:19:06.636Z,8.17
2018-05-03T09:21:34.207Z,8.20
2018-05-03T09:24:01.756Z,7.90
2018-05-03T09:26:29.333Z,8.07
2018-05-03T09:28:56.866Z,9.43
2018-05-03T09:31:24.438Z,9.13
2018-05-03T09:33:51.998Z,8.97
2018-05-03T09:36:19.576Z,8.90
2018-05-03T09:38:47.126Z,8.00
2018-05-03T09:41:14.666Z,8.70
2018-05-03T09:43:42.231Z,8.60
2018-05-03T09:46:09.789Z,8.73
2018-05-03T09:48:37.366Z,9.30
2018-05-03T09:51:04.916Z,8.73
2018-05-03T09:53:32.483Z,9.60
2018-05-03T09:56:00.028Z,9.97
2018-05-03T09:58:27.622Z,9.30
2018-05-03T10:00:55.928Z,8.43
2018-05-03T10:03:23.500Z,8.63
2018-05-03T10:05:51.047Z,9.73
2018-05-03T10:08:18.623Z,9.63
2018-05-03T10:10:46.173Z,8.57
2018-05-03T10:13:13.751Z,8.30
2018-05-03T10:15:41.311Z,9.80
2018-05-03T10:18:08.889Z,9.17
2018-05-03T10:20:36.435Z,8.73
2018-05-03T10:23:04.010Z,8.97
2018-05-03T10:25:31.573Z,8.67
2018-05-03T10:27:59.150Z,10.13
2018-05-03T10:30:27.471Z,9.20
2018-05-03T10:32:55.037Z,9.00
2018-05-03T10:35:22.576Z,9.40
2018-05-03T10:37:50.155Z,9.43
2018-05-03T10:40:17.717Z,10.43
2018-05-03T10:42:45.300Z,8.90
2018-05-03T10:45:12.834Z,9.23
2018-05-03T10:47:40.397Z,10.27
2018-05-03T10:50:07.947Z,9.83
2018-05-03T10:52:35.535Z,10.93
2018-05-03T10:55:03.865Z,10.30
2018-05-03T10:57:31.494Z,10.70
2018-05-03T10:59:59.011Z,10.67
2018-05-03T11:02:26.597Z,11.00
2018-05-03T11:04:54.149Z,10.27
2018-05-03T11:07:21.715Z,9.93
2018-05-03T11:09:49.253Z,10.57
2018-05-03T11:12:16.825Z,9.60
2018-05-03T11:14:44.391Z,9.20
2018-05-03T11:17:11.935Z,8.70
2018-05-03T11:19:39.515Z,10.13
2018-05-03T11:22:07.050Z,9.50
2018-05-03T11:24:34.627Z,10.40
2018-05-03T11:27:02.179Z,10.33
2018-05-03T11:29:29.755Z,10.30
2018-05-03T11:31:57.301Z,10.70
2018-05-03T11:34:24.871Z,10.40
2018-05-03T11:36:52.444Z,10.33
2018-05-03T11:39:20.022Z,10.33
2018-05-03T11:41:48.343Z,10.50
2018-05-03T11:44:15.911Z,10.30
2018-05-03T11:46:43.440Z,9.30
2018-05-03T11:49:11.021Z,10.30
2018-05-03T11:51:38.579Z,9.30
2018-05-03T11:54:06.148Z,10.27
2018-05-03T11:56:33.688Z,9.60
2018-05-03T11:59:01.259Z,9.37
2018-05-03T12:01:28.815Z,9.53
2018-05-03T12:03:56.383Z,10.00
2018-05-03T12:06:23.922Z,10.17
2018-05-03T12:08:51.495Z,9.67
2018-05-03T12:11:19.049Z,9.40
2018-05-03T12:13:46.620Z,10.30
2018-05-03T12:16:14.160Z,8.17
2018-05-03T12:18:41.730Z,8.33
2018-05-03T12:21:09.291Z,9.17
2018-05-03T12:23:36.847Z,8.40
2018-05-03T12:26:04.392Z,9.60
2018-05-03T12:28:31.998Z,9.93
2018-05-03T12:30:59.546Z,8.40
2018-05-03T12:33:27.115Z,8.70
2018-05-03T12:35:54.667Z,9.07
2018-05-03T12:38:22.239Z,9.23
2018-05-03T12:40:49.777Z,9.70
2018-05-03T12:43:17.346Z,8.70
2018-05-03T12:45:44.917Z,9.20
2018-05-03T12:48:12.471Z,8.70
2018-05-03T12:50:40.030Z,8.70
2018-05-03T12:53:07.570Z,8.23
2018-05-03T12:55:35.135Z,8.10
2018-05-03T12:58:02.675Z,8.27
2018-05-03T13:00:30.257Z,9.87
2018-05-03T13:02:57.810Z,8.20
2018-05-03T13:05:25.363Z,8.97
2018-05-03T13:07:52.899Z,8.73
2018-05-03T13:10:20.467Z,9.03
2018-05-03T13:12:48.019Z,9.60
2018-05-03T13:15:16.158Z,8.13
2018-05-03T13:17:43.703Z,8.60
2018-05-03T13:20:11.276Z,7.87
2018-05-03T13:22:38.830Z,7.97
2018-05-03T13:25:06.408Z,8.73
2018-05-03T13:27:34.725Z,9.20
2018-05-03T13:30:02.289Z,8.50
2018-05-03T13:32:29.842Z,8.73
2018-05-03T13:34:57.412Z,8.23
2018-05-03T13:37:24.945Z,9.07
2018-05-03T13:39:52.542Z,8.57
2018-05-03T13:42:20.090Z,9.37
2018-05-03T13:44:47.665Z,7.73
2018-05-03T13:47:15.979Z,8.37
2018-05-03T13:49:44.317Z,7.63
2018-05-03T13:52:11.864Z,8.20
2018-05-03T13:54:39.428Z,7.60
2018-05-03T13:57:06.966Z,7.73
2018-05-03T13:59:34.540Z,6.90
2018-05-03T14:02:02.095Z,8.70
2018-05-03T14:04:29.673Z,8.03
2018-05-03T14:06:57.247Z,7.40
2018-05-03T14:09:24.789Z,7.37
2018-05-03T14:11:52.359Z,7.37
2018-05-03T14:14:19.904Z,7.57
2018-05-03T14:16:47.480Z,6.33
2018-05-03T14:19:15.860Z,7.53
2018-05-03T14:21:43.383Z,6.90
2018-05-03T14:24:10.946Z,7.70
2018-05-03T14:26:38.510Z,6.87
2018-05-03T14:29:06.163Z,7.20
2018-05-03T14:31:33.741Z,6.60
2018-05-03T14:34:01.286Z,7.97
2018-05-03T14:36:28.861Z,6.97
2018-05-03T14:38:56.413Z,7.00
2018-05-03T14:41:23.979Z,7.40
2018-05-03T14:43:51.520Z,5.83
2018-05-03T14:46:19.112Z,6.80
2018-05-03T14:48:47.440Z,6.90
2018-05-03T14:51:15.771Z,6.87
2018-05-03T14:53:43.319Z,7.33
2018-05-03T14:56:10.877Z,7.57
2018-05-03T14:58:38.428Z,7.77
2018-05-03T15:01:05.994Z,6.93
2018-05-03T15:03:33.526Z,7.90
2018-05-03T15:06:01.103Z,7.13
2018-05-03T15:08:28.647Z,6.30
2018-05-03T15:10:56.220Z,5.93
2018-05-03T15:13:23.761Z,6.93
2018-05-03T15:15:51.347Z,6.43
2018-05-03T15:18:18.910Z,7.30
2018-05-03T15:20:46.486Z,7.23
2018-05-03T15:23:14.046Z,5.30
2018-05-03T15:25:41.602Z,5.70
2018-05-03T15:28:09.897Z,6.80
2018-05-03T15:30:37.484Z,5.50
2018-05-03T15:33:05.796Z,5.40
2018-05-03T15:35:33.346Z,5.80
2018-05-03T15:38:00.915Z,6.27
2018-05-03T15:40:28.454Z,6.20
2018-05-03T15:42:56.019Z,5.93
2018-05-03T15:45:23.566Z,6.83
2018-05-03T15:47:51.127Z,6.37
2018-05-03T15:50:19.458Z,6.53
2018-05-03T15:52:47.041Z,5.80
2018-05-03T15:55:15.365Z,6.63
2018-05-03T15:57:42.943Z,6.20
2018-05-03T16:00:10.487Z,6.27
2018-05-03T16:02:38.051Z,6.10
2018-05-03T16:05:05.592Z,6.07
2018-05-03T16:07:33.161Z,5.70
2018-05-03T16:10:00.714Z,5.40
2018-05-03T16:12:28.295Z,4.70
2018-05-03T16:14:55.854Z,5.20
2018-05-03T16:17:23.427Z,5.00
2018-05-03T16:19:51.009Z,5.30
2018-05-03T16:22:18.595Z,5.63
2018-05-03T16:24:46.908Z,5.90
2018-05-03T16:27:14.590Z,6.10
2018-05-03T16:29:42.835Z,6.43
2018-05-03T16:32:10.403Z,5.57
2018-05-03T16:34:37.959Z,5.40
2018-05-03T16:37:05.536Z,6.20
2018-05-03T16:39:33.083Z,6.10
2018-05-03T16:42:00.653Z,5.80
2018-05-03T16:44:28.196Z,6.13
2018-05-03T16:46:55.772Z,5.57
2018-05-03T16:49:23.312Z,6.27
2018-05-03T16:51:50.900Z,6.00
2018-05-03T16:54:18.449Z,6.60
2018-05-03T16:56:46.015Z,6.50
2018-05-03T16:59:13.563Z,5.43
2018-05-03T17:01:41.116Z,6.67
2018-05-03T17:04:08.690Z,5.90
2018-05-03T17:06:36.235Z,6.30
2018-05-03T17:09:03.807Z,5.83
2018-05-03T17:11:31.356Z,6.33
2018-05-03T17:13:58.914Z,6.53
2018-05-03T17:16:26.454Z,5.80
2018-05-03T17:18:54.029Z,5.50
2018-05-03T17:21:21.580Z,5.67
2018-05-03T17:23:49.150Z,5.67
2018-05-03T17:26:16.701Z,5.87
2018-05-03T17:28:44.268Z,5.57
2018-05-03T17:31:11.815Z,6.03
2018-05-03T17:33:39.386Z,5.60
2018-05-03T17:36:06.945Z,5.43
2018-05-03T17:38:34.506Z,5.37
2018-05-03T17:41:02.043Z,5.57
2018-05-03T17:43:29.625Z,5.80
2018-05-03T17:45:57.172Z,5.90
2018-05-03T17:48:24.746Z,5.87
2018-05-03T17:50:52.288Z,5.20
2018-05-03T17:53:19.846Z,5.57
2018-05-03T17:55:47.390Z,4.47
2018-05-03T17:58:15.720Z,5.47
2018-05-03T18:00:43.258Z,5.40
2018-05-03T18:03:10.827Z,6.43
2018-05-03T18:05:38.369Z,5.37
2018-05-03T18:08:05.940Z,5.60
2018-05-03T18:10:33.483Z,5.10
2018-05-03T18:13:01.053Z,5.00
2018-05-03T18:15:28.637Z,5.00
2018-05-03T18:17:56.197Z,4.90
2018-05-03T18:20:23.738Z,4.57
2018-05-03T18:22:51.301Z,5.20
2018-05-03T18:25:18.860Z,5.57
2018-05-03T18:27:46.410Z,5.53
2018-05-03T18:30:13.975Z,5.37
2018-05-03T18:32:41.554Z,5.73
2018-05-03T18:35:09.134Z,5.70
2018-05-03T18:37:36.696Z,5.40
2018-05-03T18:40:04.264Z,5.00
2018-05-03T18:42:31.803Z,4.57
2018-05-03T18:44:59.372Z,5.60
2018-05-03T18:47:26.916Z,4.87
2018-05-03T18:49:54.556Z,6.13
2018-05-03T18:52:22.044Z,6.20
2018-05-03T18:54:49.670Z,4.97
2018-05-03T18:57:17.957Z,5.87
2018-05-03T18:59:45.524Z,5.43
2018-05-03T19:02:13.075Z,5.83
2018-05-03T19:04:40.640Z,4.90
2018-05-03T19:07:08.185Z,5.47
2018-05-03T19:09:35.753Z,5.60
2018-05-03T19:12:03.295Z,5.73
2018-05-03T19:14:30.955Z,5.43
2018-05-03T19:16:58.442Z,5.20
2018-05-03T19:19:26.001Z,5.40
2018-05-03T19:21:53.547Z,5.37
2018-05-03T19:24:21.123Z,5.77
2018-05-03T19:26:48.657Z,6.10
2018-05-03T19:29:16.244Z,5.30
2018-05-03T19:31:43.787Z,5.50
2018-05-03T19:34:11.341Z,5.40
2018-05-03T19:36:38.902Z,5.50
2018-05-03T19:39:06.468Z,5.07
2018-05-03T19:41:34.035Z,5.27
2018-05-03T19:44:01.569Z,5.37
2018-05-03T19:46:29.140Z,4.77
2018-05-03T19:48:56.665Z,5.30
2018-05-03T19:51:24.996Z,5.77
2018-05-03T19:53:52.522Z,5.17
2018-05-03T19:56:20.104Z,5.50
2018-05-03T19:58:47.641Z,5.40
2018-05-03T20:01:15.214Z,5.60
2018-05-03T20:03:42.757Z,5.50
2018-05-03T20:06:10.355Z,5.23
2018-05-03T20:08:37.900Z,6.10
2018-05-03T20:11:05.467Z,5.70
2018-05-03T20:13:33.051Z,4.53
2018-05-03T20:16:00.630Z,5.27
2018-05-03T20:18:28.153Z,6.23
2018-05-03T20:20:55.731Z,6.40
2018-05-03T20:23:23.317Z,6.20
2018-05-03T20:25:51.659Z,6.37
2018-05-03T20:28:19.211Z,6.30
2018-05-03T20:30:46.789Z,5.90
2018-05-03T20:33:15.309Z,6.80
2018-05-03T20:35:42.879Z,5.50
2018-05-03T20:38:10.428Z,7.20
2018-05-03T20:40:37.998Z,6.43
2018-05-03T20:43:05.543Z,6.83
2018-05-03T20:45:33.093Z,5.53
2018-05-03T20:48:00.653Z,6.30
2018-05-03T20:50:28.977Z,6.50
2018-05-03T20:52:56.517Z,6.60
2018-05-03T20:55:24.105Z,6.30
2018-05-03T20:57:51.681Z,6.30
2018-05-03T21:00:20.057Z,5.83
2018-05-03T21:02:48.449Z,6.00
2018-05-03T21:05:16.846Z,5.90
2018-05-03T21:07:45.276Z,5.93
2018-05-03T21:10:12.878Z,6.13
2018-05-03T21:12:40.540Z,5.87
2018-05-03T21:15:08.216Z,6.30
2018-05-03T21:17:36.551Z,6.13
2018-05-03T21:20:04.130Z,6.97
2018-05-03T21:22:31.708Z,5.73
2018-05-03T21:25:00.015Z,6.20
2018-05-03T21:27:27.578Z,6.10
2018-05-03T21:29:55.115Z,7.00
2018-05-03T21:32:22.683Z,5.70
2018-05-03T21:34:50.218Z,6.70
2018-05-03T21:37:18.550Z,5.93
2018-05-03T21:39:46.096Z,6.47
2018-05-03T21:42:13.665Z,6.30
2018-05-03T21:44:41.207Z,6.20
2018-05-03T21:47:08.818Z,6.27
2018-05-03T21:49:37.199Z,5.93
2018-05-03T21:52:05.605Z,5.60
2018-05-03T21:54:33.211Z,6.40
2018-05-03T21:57:00.795Z,6.60
2018-05-03T21:59:28.332Z,5.93
2018-05-03T22:01:55.911Z,6.20
2018-05-03T22:04:23.455Z,5.63
2018-05-03T22:06:51.016Z,5.70
2018-05-03T22:09:18.549Z,6.40
2018-05-03T22:11:46.103Z,5.63
2018-05-03T22:14:13.645Z,5.83
2018-05-03T22:16:41.199Z,5.83
2018-05-03T22:19:09.534Z,6.13
2018-05-03T22:21:37.081Z,6.87
2018-05-03T22:24:04.644Z,7.30
2018-05-03T22:26:32.183Z,6.23
2018-05-03T22:28:59.747Z,5.90
2018-05-03T22:31:27.277Z,6.70
2018-05-03T22:33:54.845Z,6.77
2018-05-03T22:36:22.388Z,6.00
2018-05-03T22:38:50.709Z,6.37
2018-05-03T22:41:18.247Z,8.33
2018-05-03T22:43:45.812Z,7.50
2018-05-03T22:46:13.345Z,7.70
2018-05-03T22:48:41.676Z,8.20
2018-05-03T22:51:09.211Z,8.43
2018-05-03T22:53:36.771Z,8.07
2018-05-03T22:56:04.314Z,8.00
2018-05-03T22:58:31.898Z,8.70
2018-05-03T23:00:59.552Z,8.77
2018-05-03T23:03:27.126Z,9.10
2018-05-03T23:05:54.672Z,9.07
2018-05-03T23:08:22.230Z,8.50
2018-05-03T23:10:49.774Z,8.47
2018-05-03T23:13:17.351Z,9.70
2018-05-03T23:15:44.894Z,8.27
2018-05-03T23:18:12.472Z,10.30
2018-05-03T23:20:40.020Z,9.70
2018-05-03T23:23:07.599Z,9.80
2018-05-03T23:25:35.143Z,10.10
2018-05-03T23:28:02.726Z,10.07
2018-05-03T23:30:30.331Z,10.60
2018-05-03T23:32:57.875Z,12.57
2018-05-03T23:35:25.434Z,10.70
2018-05-03T23:37:52.994Z,10.80
2018-05-03T23:40:21.314Z,11.73
2018-05-03T23:42:48.882Z,10.80
2018-05-03T23:45:16.431Z,10.30
2018-05-03T23:47:43.988Z,11.60
2018-05-03T23:50:11.562Z,11.70
2018-05-03T23:52:39.106Z,11.47
2018-05-03T23:55:06.686Z,11.07
2018-05-03T23:57:34.231Z,12.17
